PWSweather.com
Personal Weather Stations
Station Observations
PENICUIKWS
PenicuikGB

PenicuikGB

Lat: 55.830932, Lon: -3.224533000000065

Elevation: 166

Station Type: Fine Offset

http://weather.penicuik.org

High Low Average
Temperature 62.8°F17.1°C 39.6°F4.2°C 54.6°F12.6°C
Dew Point 58.6°F14.8°C 37.7°F3.2°C 49.5°F9.7°C
Winds 5.8 mph 9.3 kmh Calm Calm 3.0 mph S4.8 kmh S
Wind Gusts 14.5 mph23.3 kmh -- 5.0 mph8.0 kmh
Humidity 93% 63% 83%
Pressure 30.43 in1030.5 mb 30.12 in1020.0 mb -
Precipitation 0.02 in0.5 mm - -
Hour Temp Dew Point Humidity Winds Wind Gusts Pressure Precip Precip Rate Daily Precip Total
12:00 AM 60.6°F15.9°C 58.6°F14.8°C 93% 3.5 mph SSW5.6 kmh SSW 6.0 mph9.7 kmh 30.26 in1024.7 mb 0.00 in0.0 mm 0.00 in0.0 mm 0.00 in0.0 mm
12:01 AM 60.6°F15.9°C 58.6°F14.8°C 93% 3.7 mph SSW6.0 kmh SSW 6.0 mph9.7 kmh 30.26 in1024.7 mb 0.00 in0.0 mm 0.00 in0.0 mm 0.00 in0.0 mm
12:15 AM 60.8°F16.0°C 58.5°F14.7°C 92% 4.6 mph SE7.4 kmh SE 14.5 mph23.3 kmh 30.26 in1024.7 mb 0.00 in0.0 mm 0.00 in0.0 mm 0.00 in0.0 mm
12:16 AM 60.8°F16.0°C 58.5°F14.7°C 92% 5.2 mph S8.4 kmh S 14.5 mph23.3 kmh 30.26 in1024.7 mb 0.00 in0.0 mm 0.00 in0.0 mm 0.00 in0.0 mm
12:30 AM 61.0°F16.1°C 58.3°F14.6°C 91% 4.8 mph S7.7 kmh S 6.9 mph11.1 kmh 30.25 in1024.4 mb 0.00 in0.0 mm 0.00 in0.0 mm 0.00 in0.0 mm
12:31 AM 61.0°F16.1°C 58.3°F14.6°C 91% 4.7 mph S7.6 kmh S 6.9 mph11.1 kmh 30.25 in1024.4 mb 0.00 in0.0 mm 0.00 in0.0 mm 0.00 in0.0 mm
12:45 AM 60.8°F16.0°C 57.9°F14.4°C 90% 4.7 mph WSW7.6 kmh WSW 8.3 mph13.4 kmh 30.25 in1024.4 mb 0.00 in0.0 mm 0.00 in0.0 mm 0.00 in0.0 mm
12:59 AM 60.4°F15.8°C 57.8°F14.3°C 91% 3.0 mph S4.8 kmh S 6.9 mph11.1 kmh 30.24 in1024.0 mb 0.01 in0.3 mm 0.04 in1.0 mm 0.01 in0.3 mm
01:00 AM 60.4°F15.8°C 57.8°F14.3°C 91% 3.0 mph S4.8 kmh S 6.9 mph11.1 kmh 30.24 in1024.0 mb 0.01 in0.3 mm 0.00 in0.0 mm 0.01 in0.3 mm
01:15 AM 60.3°F15.7°C 57.6°F14.2°C 91% 4.0 mph WSW6.4 kmh WSW 6.0 mph9.7 kmh 30.24 in1024.0 mb 0.01 in0.3 mm 0.00 in0.0 mm 0.01 in0.3 mm
01:30 AM 60.1°F15.6°C 57.5°F14.2°C 91% 3.2 mph NNW5.1 kmh NNW 6.0 mph9.7 kmh 30.23 in1023.7 mb 0.02 in0.5 mm 0.04 in1.0 mm 0.02 in0.5 mm
02:00 AM 59.7°F15.4°C 57.4°F14.1°C 92% 4.2 mph NW6.8 kmh NW 9.8 mph15.8 kmh 30.22 in1023.4 mb 0.01 in0.3 mm 0.00 in0.0 mm 0.02 in0.5 mm
02:15 AM 59.5°F15.3°C 56.6°F13.7°C 90% 4.6 mph NW7.4 kmh NW 6.9 mph11.1 kmh 30.22 in1023.4 mb 0.01 in0.3 mm 0.00 in0.0 mm 0.02 in0.5 mm
02:30 AM 59.2°F15.1°C 56.0°F13.3°C 89% 4.4 mph SSE7.1 kmh SSE 7.6 mph12.2 kmh 30.21 in1023.0 mb 0.00 in0.0 mm 0.00 in0.0 mm 0.02 in0.5 mm
02:45 AM 59.2°F15.1°C 55.6°F13.1°C 88% 5.3 mph N8.5 kmh N 6.0 mph9.7 kmh 30.21 in1023.0 mb 0.00 in0.0 mm 0.00 in0.0 mm 0.02 in0.5 mm
03:00 AM 59.4°F15.2°C 55.8°F13.2°C 88% 5.1 mph N8.2 kmh N 7.6 mph12.2 kmh 30.20 in1022.7 mb 0.00 in0.0 mm 0.00 in0.0 mm 0.02 in0.5 mm
03:15 AM 59.5°F15.3°C 56.3°F13.5°C 89% 4.8 mph NNW7.7 kmh NNW 8.3 mph13.4 kmh 30.18 in1022.0 mb 0.00 in0.0 mm 0.00 in0.0 mm 0.02 in0.5 mm
03:30 AM 59.5°F15.3°C 56.3°F13.5°C 89% 3.1 mph WSW5.0 kmh WSW 6.0 mph9.7 kmh 30.19 in1022.4 mb 0.00 in0.0 mm 0.00 in0.0 mm 0.02 in0.5 mm
03:45 AM 59.5°F15.3°C 56.3°F13.5°C 89% 3.6 mph S5.8 kmh S 6.9 mph11.1 kmh 30.18 in1022.0 mb 0.00 in0.0 mm 0.00 in0.0 mm 0.02 in0.5 mm
04:00 AM 59.5°F15.3°C 56.0°F13.3°C 88% 2.8 mph W4.5 kmh W 4.5 mph7.2 kmh 30.18 in1022.0 mb 0.00 in0.0 mm 0.00 in0.0 mm 0.02 in0.5 mm
04:15 AM 59.2°F15.1°C 55.6°F13.1°C 88% 2.4 mph N3.9 kmh N 3.8 mph6.1 kmh 30.18 in1022.0 mb 0.00 in0.0 mm 0.00 in0.0 mm 0.02 in0.5 mm
04:45 AM 58.5°F14.7°C 55.2°F12.9°C 89% 2.6 mph WSW4.2 kmh WSW 4.5 mph7.2 kmh 30.16 in1021.3 mb 0.00 in0.0 mm 0.00 in0.0 mm 0.02 in0.5 mm
05:00 AM 58.1°F14.5°C 54.9°F12.7°C 89% 2.0 mph N3.2 kmh N 3.1 mph5.0 kmh 30.15 in1021.0 mb 0.00 in0.0 mm 0.00 in0.0 mm 0.02 in0.5 mm
05:15 AM 58.1°F14.5°C 54.6°F12.6°C 88% 3.1 mph N5.0 kmh N 5.4 mph8.7 kmh 30.15 in1021.0 mb 0.00 in0.0 mm 0.00 in0.0 mm 0.02 in0.5 mm
05:30 AM 57.6°F14.2°C 54.0°F12.2°C 88% 2.3 mph N3.7 kmh N 3.8 mph6.1 kmh 30.14 in1020.7 mb 0.00 in0.0 mm 0.00 in0.0 mm 0.02 in0.5 mm
05:45 AM 57.6°F14.2°C 53.7°F12.1°C 87% 3.9 mph E6.3 kmh E 8.3 mph13.4 kmh 30.14 in1020.7 mb 0.00 in0.0 mm 0.00 in0.0 mm 0.02 in0.5 mm
06:00 AM 57.4°F14.1°C 53.2°F11.8°C 86% 4.1 mph NE6.6 kmh NE 7.6 mph12.2 kmh 30.13 in1020.3 mb 0.00 in0.0 mm 0.00 in0.0 mm 0.02 in0.5 mm
06:15 AM 56.8°F13.8°C 53.0°F11.7°C 87% 2.8 mph NNW4.5 kmh NNW 4.5 mph7.2 kmh 30.12 in1020.0 mb 0.00 in0.0 mm 0.00 in0.0 mm 0.02 in0.5 mm
06:30 AM 57.0°F13.9°C 52.9°F11.6°C 86% 5.4 mph N8.7 kmh N 11.4 mph18.3 kmh 30.12 in1020.0 mb 0.00 in0.0 mm 0.00 in0.0 mm 0.02 in0.5 mm
06:45 AM 56.8°F13.8°C 52.7°F11.5°C 86% 3.8 mph E6.1 kmh E 4.5 mph7.2 kmh 30.13 in1020.3 mb 0.00 in0.0 mm 0.00 in0.0 mm 0.02 in0.5 mm
07:00 AM 57.2°F14.0°C 52.1°F11.2°C 83% 2.5 mph NNW4.0 kmh NNW 3.1 mph5.0 kmh 30.13 in1020.3 mb 0.00 in0.0 mm 0.00 in0.0 mm 0.02 in0.5 mm
07:15 AM 57.7°F14.3°C 52.3°F11.3°C 82% 4.0 mph WSW6.4 kmh WSW 6.0 mph9.7 kmh 30.13 in1020.3 mb 0.00 in0.0 mm 0.00 in0.0 mm 0.02 in0.5 mm
07:45 AM 57.4°F14.1°C 50.2°F10.1°C 77% 5.4 mph SW8.7 kmh SW 9.2 mph14.8 kmh 30.14 in1020.7 mb 0.00 in0.0 mm 0.00 in0.0 mm 0.02 in0.5 mm
08:00 AM 56.7°F13.7°C 49.9°F9.9°C 78% 4.3 mph SW6.9 kmh SW 6.9 mph11.1 kmh 30.14 in1020.7 mb 0.00 in0.0 mm 0.00 in0.0 mm 0.02 in0.5 mm
08:15 AM 56.1°F13.4°C 49.0°F9.4°C 77% 4.1 mph SW6.6 kmh SW 6.0 mph9.7 kmh 30.15 in1021.0 mb 0.00 in0.0 mm 0.00 in0.0 mm 0.02 in0.5 mm
08:30 AM 61.3°F16.3°C 51.5°F10.8°C 70% 5.0 mph NW8.0 kmh NW 8.3 mph13.4 kmh 30.15 in1021.0 mb 0.00 in0.0 mm 0.00 in0.0 mm 0.02 in0.5 mm
09:00 AM 57.7°F14.3°C 49.2°F9.6°C 73% 3.8 mph SSE6.1 kmh SSE 5.4 mph8.7 kmh 30.15 in1021.0 mb 0.00 in0.0 mm 0.00 in0.0 mm 0.02 in0.5 mm
09:15 AM 56.8°F13.8°C 48.7°F9.3°C 74% 3.7 mph SE6.0 kmh SE 9.2 mph14.8 kmh 30.14 in1020.7 mb 0.00 in0.0 mm 0.00 in0.0 mm 0.02 in0.5 mm
09:29 AM 55.9°F13.3°C 48.5°F9.2°C 76% 3.1 mph SE5.0 kmh SE 6.9 mph11.1 kmh 30.15 in1021.0 mb 0.00 in0.0 mm 0.00 in0.0 mm 0.02 in0.5 mm
09:30 AM 55.8°F13.2°C 48.3°F9.1°C 76% 3.0 mph SE4.8 kmh SE 6.9 mph11.1 kmh 30.15 in1021.0 mb 0.00 in0.0 mm 0.00 in0.0 mm 0.02 in0.5 mm
09:45 AM 55.6°F13.1°C 48.8°F9.3°C 78% 5.1 mph W8.2 kmh W 6.9 mph11.1 kmh 30.15 in1021.0 mb 0.00 in0.0 mm 0.00 in0.0 mm 0.02 in0.5 mm
10:00 AM 55.4°F13.0°C 49.3°F9.6°C 80% 4.4 mph N7.1 kmh N 7.6 mph12.2 kmh 30.14 in1020.7 mb 0.00 in0.0 mm 0.00 in0.0 mm 0.02 in0.5 mm
10:30 AM 56.1°F13.4°C 50.7°F10.4°C 82% 4.1 mph W6.6 kmh W 7.6 mph12.2 kmh 30.14 in1020.7 mb 0.00 in0.0 mm 0.00 in0.0 mm 0.02 in0.5 mm
10:45 AM 56.3°F13.5°C 50.9°F10.5°C 82% 3.9 mph S6.3 kmh S 6.0 mph9.7 kmh 30.15 in1021.0 mb 0.00 in0.0 mm 0.00 in0.0 mm 0.02 in0.5 mm
11:00 AM 56.5°F13.6°C 51.1°F10.6°C 82% 5.5 mph SW8.9 kmh SW 7.6 mph12.2 kmh 30.16 in1021.3 mb 0.00 in0.0 mm 0.00 in0.0 mm 0.02 in0.5 mm
11:15 AM 56.8°F13.8°C 51.4°F10.8°C 82% 5.0 mph N8.0 kmh N 9.2 mph14.8 kmh 30.15 in1021.0 mb 0.00 in0.0 mm 0.00 in0.0 mm 0.02 in0.5 mm
11:30 AM 56.5°F13.6°C 51.1°F10.6°C 82% 5.8 mph SSW9.3 kmh SSW 9.8 mph15.8 kmh 30.16 in1021.3 mb 0.00 in0.0 mm 0.00 in0.0 mm 0.02 in0.5 mm
11:45 AM 56.7°F13.7°C 51.2°F10.7°C 82% 5.0 mph S8.0 kmh S 6.9 mph11.1 kmh 30.16 in1021.3 mb 0.00 in0.0 mm 0.00 in0.0 mm 0.02 in0.5 mm
12:00 PM 56.5°F13.6°C 51.4°F10.8°C 83% 3.6 mph SSE5.8 kmh SSE 6.0 mph9.7 kmh 30.16 in1021.3 mb 0.00 in0.0 mm 0.00 in0.0 mm 0.02 in0.5 mm
12:15 PM 56.3°F13.5°C 51.5°F10.8°C 84% 2.7 mph SSW4.3 kmh SSW 3.8 mph6.1 kmh 30.17 in1021.7 mb 0.00 in0.0 mm 0.00 in0.0 mm 0.02 in0.5 mm
12:30 PM 56.3°F13.5°C 51.9°F11.1°C 85% 3.6 mph S5.8 kmh S 5.4 mph8.7 kmh 30.17 in1021.7 mb 0.00 in0.0 mm 0.00 in0.0 mm 0.02 in0.5 mm
12:45 PM 57.2°F14.0°C 52.4°F11.3°C 84% 3.4 mph SSW5.5 kmh SSW 5.4 mph8.7 kmh 30.17 in1021.7 mb 0.00 in0.0 mm 0.00 in0.0 mm 0.02 in0.5 mm
01:00 PM 57.4°F14.1°C 52.3°F11.3°C 83% 3.4 mph NNE5.5 kmh NNE 5.4 mph8.7 kmh 30.18 in1022.0 mb 0.00 in0.0 mm 0.00 in0.0 mm 0.02 in0.5 mm
01:30 PM 60.8°F16.0°C 51.4°F10.8°C 71% 3.4 mph NW5.5 kmh NW 5.4 mph8.7 kmh 30.19 in1022.4 mb 0.00 in0.0 mm 0.00 in0.0 mm 0.02 in0.5 mm
01:45 PM 62.8°F17.1°C 50.4°F10.2°C 64% 3.8 mph N6.1 kmh N 6.9 mph11.1 kmh 30.19 in1022.4 mb 0.00 in0.0 mm 0.00 in0.0 mm 0.02 in0.5 mm
02:00 PM 61.9°F16.6°C 49.2°F9.6°C 63% 2.9 mph NNE4.7 kmh NNE 4.5 mph7.2 kmh 30.20 in1022.7 mb 0.00 in0.0 mm 0.00 in0.0 mm 0.02 in0.5 mm
02:30 PM 59.7°F15.4°C 47.5°F8.6°C 64% 2.0 mph ESE3.2 kmh ESE 3.8 mph6.1 kmh 30.22 in1023.4 mb 0.00 in0.0 mm 0.00 in0.0 mm 0.02 in0.5 mm
02:45 PM 58.8°F14.9°C 47.5°F8.6°C 66% 1.8 mph N2.9 kmh N 2.2 mph3.5 kmh 30.22 in1023.4 mb 0.00 in0.0 mm 0.00 in0.0 mm 0.02 in0.5 mm
03:00 PM 57.4°F14.1°C 47.3°F8.5°C 69% 2.5 mph N4.0 kmh N 3.8 mph6.1 kmh 30.24 in1024.0 mb 0.00 in0.0 mm 0.00 in0.0 mm 0.02 in0.5 mm
03:15 PM 55.2°F12.9°C 46.4°F8.0°C 72% 2.4 mph NNE3.9 kmh NNE 3.8 mph6.1 kmh 30.24 in1024.0 mb 0.00 in0.0 mm 0.00 in0.0 mm 0.02 in0.5 mm
03:30 PM 54.0°F12.2°C 46.6°F8.1°C 76% 2.1 mph NNW3.4 kmh NNW 2.2 mph3.5 kmh 30.25 in1024.4 mb 0.00 in0.0 mm 0.00 in0.0 mm 0.02 in0.5 mm
03:45 PM 53.6°F12.0°C 46.9°F8.3°C 78% 0.6 mph ENE1.0 kmh ENE 1.6 mph2.6 kmh 30.25 in1024.4 mb 0.00 in0.0 mm 0.00 in0.0 mm 0.02 in0.5 mm
04:00 PM 54.1°F12.3°C 47.4°F8.6°C 78% 0.9 mph NNE1.4 kmh NNE 1.6 mph2.6 kmh 30.26 in1024.7 mb 0.00 in0.0 mm 0.00 in0.0 mm 0.02 in0.5 mm
04:15 PM 54.3°F12.4°C 47.6°F8.7°C 78% 0.7 mph N1.1 kmh N 1.6 mph2.6 kmh 30.27 in1025.1 mb 0.00 in0.0 mm 0.00 in0.0 mm 0.02 in0.5 mm
04:30 PM 54.5°F12.5°C 45.3°F7.4°C 71% 2.8 mph N4.5 kmh N 4.5 mph7.2 kmh 30.27 in1025.1 mb 0.00 in0.0 mm 0.00 in0.0 mm 0.02 in0.5 mm
04:45 PM 54.3°F12.4°C 44.4°F6.9°C 69% 1.6 mph N2.6 kmh N 1.6 mph2.6 kmh 30.27 in1025.1 mb 0.00 in0.0 mm 0.00 in0.0 mm 0.02 in0.5 mm
05:15 PM 52.3°F11.3°C 43.6°F6.4°C 72% 0.1 mph N0.2 kmh N 0.7 mph1.1 kmh 30.29 in1025.7 mb 0.00 in0.0 mm 0.00 in0.0 mm 0.02 in0.5 mm
05:30 PM 51.3°F10.7°C 43.3°F6.3°C 74% 0.1 mph N0.2 kmh N 0.7 mph1.1 kmh 30.30 in1026.1 mb 0.00 in0.0 mm 0.00 in0.0 mm 0.02 in0.5 mm
05:45 PM 50.4°F10.2°C 43.1°F6.2°C 76% Calm Calm -- 30.30 in1026.1 mb 0.00 in0.0 mm 0.00 in0.0 mm 0.02 in0.5 mm
06:00 PM 49.1°F9.5°C 42.9°F6.1°C 79% Calm Calm -- 30.32 in1026.8 mb 0.00 in0.0 mm 0.00 in0.0 mm 0.02 in0.5 mm
06:15 PM 48.4°F9.1°C 43.1°F6.2°C 82% 1.1 mph SW1.8 kmh SW 2.2 mph3.5 kmh 30.32 in1026.8 mb 0.00 in0.0 mm 0.00 in0.0 mm 0.02 in0.5 mm
06:30 PM 48.0°F8.9°C 43.4°F6.3°C 84% 1.5 mph SW2.4 kmh SW 2.2 mph3.5 kmh 30.32 in1026.8 mb 0.00 in0.0 mm 0.00 in0.0 mm 0.02 in0.5 mm
06:45 PM 48.4°F9.1°C 43.5°F6.4°C 83% 1.5 mph NNE2.4 kmh NNE 3.1 mph5.0 kmh 30.32 in1026.8 mb 0.00 in0.0 mm 0.00 in0.0 mm 0.02 in0.5 mm
07:00 PM 48.0°F8.9°C 43.1°F6.2°C 83% 0.2 mph N0.3 kmh N 1.6 mph2.6 kmh 30.33 in1027.1 mb 0.00 in0.0 mm 0.00 in0.0 mm 0.02 in0.5 mm
07:15 PM 47.7°F8.7°C 42.8°F6.0°C 83% 0.2 mph N0.3 kmh N 0.7 mph1.1 kmh 30.34 in1027.4 mb 0.00 in0.0 mm 0.00 in0.0 mm 0.02 in0.5 mm
07:30 PM 47.3°F8.5°C 42.7°F5.9°C 84% 0.3 mph N0.5 kmh N 0.7 mph1.1 kmh 30.34 in1027.4 mb 0.00 in0.0 mm 0.00 in0.0 mm 0.02 in0.5 mm
07:45 PM 46.8°F8.2°C 42.2°F5.7°C 84% 0.1 mph N0.2 kmh N 0.7 mph1.1 kmh 30.36 in1028.1 mb 0.00 in0.0 mm 0.00 in0.0 mm 0.02 in0.5 mm
08:00 PM 46.4°F8.0°C 42.1°F5.6°C 85% 0.7 mph NNW1.1 kmh NNW 3.8 mph6.1 kmh 30.36 in1028.1 mb 0.00 in0.0 mm 0.00 in0.0 mm 0.02 in0.5 mm
08:15 PM 45.9°F7.7°C 41.6°F5.3°C 85% Calm Calm -- 30.36 in1028.1 mb 0.00 in0.0 mm 0.00 in0.0 mm 0.02 in0.5 mm
08:30 PM 45.3°F7.4°C 41.4°F5.2°C 86% 0.3 mph SW0.5 kmh SW 1.6 mph2.6 kmh 30.37 in1028.4 mb 0.00 in0.0 mm 0.00 in0.0 mm 0.02 in0.5 mm
08:45 PM 45.1°F7.3°C 41.5°F5.3°C 87% 0.7 mph WSW1.1 kmh WSW 1.6 mph2.6 kmh 30.38 in1028.8 mb 0.00 in0.0 mm 0.00 in0.0 mm 0.02 in0.5 mm
09:00 PM 44.6°F7.0°C 41.3°F5.2°C 88% 0.1 mph SW0.2 kmh SW 0.7 mph1.1 kmh 30.39 in1029.1 mb 0.00 in0.0 mm 0.00 in0.0 mm 0.02 in0.5 mm
09:15 PM 43.5°F6.4°C 40.5°F4.7°C 89% 0.7 mph SW1.1 kmh SW 1.6 mph2.6 kmh 30.39 in1029.1 mb 0.00 in0.0 mm 0.00 in0.0 mm 0.02 in0.5 mm
09:30 PM 42.8°F6.0°C 39.8°F4.3°C 89% 0.4 mph SSE0.6 kmh SSE 1.6 mph2.6 kmh 30.40 in1029.5 mb 0.00 in0.0 mm 0.00 in0.0 mm 0.02 in0.5 mm
09:45 PM 42.1°F5.6°C 39.4°F4.1°C 90% Calm Calm -- 30.40 in1029.5 mb 0.00 in0.0 mm 0.00 in0.0 mm 0.02 in0.5 mm
10:00 PM 41.5°F5.3°C 38.8°F3.8°C 90% 0.4 mph NNW0.6 kmh NNW 1.6 mph2.6 kmh 30.41 in1029.8 mb 0.00 in0.0 mm 0.00 in0.0 mm 0.02 in0.5 mm
10:15 PM 41.0°F5.0°C 38.6°F3.7°C 91% Calm Calm 1.6 mph2.6 kmh 30.41 in1029.8 mb 0.00 in0.0 mm 0.00 in0.0 mm 0.02 in0.5 mm
10:45 PM 40.5°F4.7°C 38.3°F3.5°C 92% 0.3 mph N0.5 kmh N 1.6 mph2.6 kmh 30.42 in1030.1 mb 0.00 in0.0 mm 0.00 in0.0 mm 0.02 in0.5 mm
11:00 PM 40.1°F4.5°C 38.2°F3.4°C 93% 0.4 mph NW0.6 kmh NW 1.6 mph2.6 kmh 30.42 in1030.1 mb 0.00 in0.0 mm 0.00 in0.0 mm 0.02 in0.5 mm
11:15 PM 39.7°F4.3°C 37.9°F3.3°C 93% 0.4 mph WNW0.6 kmh WNW 1.6 mph2.6 kmh 30.42 in1030.1 mb 0.00 in0.0 mm 0.00 in0.0 mm 0.02 in0.5 mm
11:30 PM 39.6°F4.2°C 37.7°F3.2°C 93% 0.1 mph W0.2 kmh W 0.7 mph1.1 kmh 30.43 in1030.5 mb 0.00 in0.0 mm 0.00 in0.0 mm 0.02 in0.5 mm